Time;durP1;ratioP1;P1;durP2;ratioP2;P2;SDS_P1;SDS_P2;PMS_P1;PMS_P2;Temp;Humidity;BMP_temperature;BMP_pressure;BME280_temperature;BME280_humidity;BME280_pressure;Samples;Min_cycle;Max_cycle;Signal;HPM_P1;HPM_P2
2023/03/04 00:03:21;;;;;;;14.80;6.32;;;5.70;95.50;;;;;;10138507;28;20531;-59
2023/03/04 00:08:11;;;;;;;15.48;7.10;;;5.60;95.60;;;;;;10139220;28;20024;-60
2023/03/04 00:13:02;;;;;;;11.50;6.75;;;5.60;95.60;;;;;;10138814;28;20378;-60
2023/03/04 00:17:53;;;;;;;15.30;7.35;;;5.40;95.70;;;;;;10138910;28;20028;-59
2023/03/04 00:22:43;;;;;;;13.50;6.05;;;5.40;95.90;;;;;;10138475;28;20043;-59
2023/03/04 00:27:34;;;;;;;10.02;5.53;;;5.40;95.90;;;;;;10139037;28;20445;-61
2023/03/04 00:32:24;;;;;;;13.82;6.00;;;5.40;96.10;;;;;;10146321;28;20021;-61
2023/03/04 00:37:15;;;;;;;15.02;6.05;;;5.30;96.30;;;;;;10145878;28;20037;-60
2023/03/04 00:42:05;;;;;;;16.35;7.10;;;5.20;96.70;;;;;;10146146;28;20029;-59
2023/03/04 00:46:56;;;;;;;11.18;5.13;;;5.20;96.80;;;;;;10104427;28;20463;-60
2023/03/04 00:51:47;;;;;;;14.80;6.85;;;5.10;96.90;;;;;;10105115;28;20031;-59
2023/03/04 00:56:38;;;;;;;16.17;7.25;;;5.10;97.00;;;;;;10105392;28;20021;-59
2023/03/04 01:01:28;;;;;;;17.77;6.95;;;5.10;97.00;;;;;;10105125;28;20037;-60
2023/03/04 01:06:19;;;;;;;13.93;7.80;;;5.10;97.00;;;;;;10105228;28;20036;-61
2023/03/04 01:11:10;;;;;;;15.52;7.85;;;5.10;97.10;;;;;;10105045;28;20032;-60
2023/03/04 01:16:02;;;;;;;15.77;6.35;;;5.10;97.00;;;;;;10104571;28;20017;-60
2023/03/04 01:20:53;;;;;;;13.77;6.20;;;5.00;97.00;;;;;;10103955;28;20515;-60
2023/03/04 01:25:43;;;;;;;14.63;6.60;;;4.80;97.30;;;;;;10100259;28;20098;-60
2023/03/04 01:30:34;;;;;;;14.90;6.75;;;4.70;97.60;;;;;;10081851;28;20033;-60
2023/03/04 01:35:24;;;;;;;18.52;7.68;;;4.70;97.90;;;;;;10096769;28;20025;-61
2023/03/04 01:40:15;;;;;;;19.58;7.18;;;4.60;97.60;;;;;;10103047;28;20578;-59
2023/03/04 01:45:10;;;;;;;20.58;7.10;;;4.50;97.70;;;;;;10120123;28;20090;-60
2023/03/04 01:50:04;;;;;;;17.75;7.25;;;4.50;98.00;;;;;;10144202;28;20044;-59
2023/03/04 01:54:55;;;;;;;22.23;8.63;;;4.40;98.20;;;;;;10147605;28;20019;-61
2023/03/04 01:59:46;;;;;;;22.90;7.28;;;4.40;98.40;;;;;;10143940;28;20044;-60
2023/03/04 02:04:37;;;;;;;17.73;7.03;;;4.50;98.40;;;;;;10144962;28;20021;-60
2023/03/04 02:09:29;;;;;;;18.70;7.90;;;4.30;98.60;;;;;;10144203;28;20091;-60
2023/03/04 02:14:21;;;;;;;22.63;8.20;;;4.30;98.90;;;;;;10155773;28;20482;-60
2023/03/04 02:19:26;;;;;;;22.05;8.75;;;4.20;99.00;;;;;;10143023;28;20105;-61
2023/03/04 02:24:23;;;;;;;20.00;8.48;;;4.10;99.30;;;;;;10124311;28;20098;-59
2023/03/04 02:29:15;;;;;;;19.77;8.40;;;4.10;99.90;;;;;;10142112;28;20044;-62
2023/03/04 02:34:23;;;;;;;19.92;8.02;;;4.00;99.70;;;;;;10141856;28;20024;-60
2023/03/04 02:39:28;;;;;;;20.65;9.30;;;4.00;99.90;;;;;;10141693;28;20082;-60
2023/03/04 02:44:25;;;;;;;25.75;10.25;;;3.90;99.90;;;;;;10123555;28;20143;-61
2023/03/04 02:49:17;;;;;;;21.27;8.52;;;3.80;99.90;;;;;;10141079;28;20024;-61
2023/03/04 02:54:22;;;;;;;20.98;9.82;;;3.80;99.90;;;;;;10122388;28;20395;-61
2023/03/04 02:59:13;;;;;;;25.40;10.52;;;3.70;99.90;;;;;;10141109;28;20119;-60
2023/03/04 03:04:03;;;;;;;20.02;8.40;;;3.60;99.90;;;;;;10140778;28;20116;-60
2023/03/04 03:08:54;;;;;;;21.40;9.35;;;3.70;99.90;;;;;;10140424;28;20043;-60
2023/03/04 03:13:45;;;;;;;30.30;10.98;;;3.60;99.90;;;;;;10140221;28;20282;-59
2023/03/04 03:18:35;;;;;;;19.80;9.25;;;3.60;99.90;;;;;;10140056;28;20483;-59
2023/03/04 03:23:26;;;;;;;24.15;9.35;;;3.50;99.90;;;;;;10121067;28;20605;-59
2023/03/04 03:28:16;;;;;;;23.45;9.23;;;3.50;99.90;;;;;;10132448;28;20260;-59
2023/03/04 03:33:07;;;;;;;24.58;10.25;;;3.50;99.90;;;;;;10120936;28;20099;-61
2023/03/04 03:37:58;;;;;;;23.90;10.77;;;3.40;99.90;;;;;;10132060;28;20025;-59
2023/03/04 03:42:50;;;;;;;25.58;9.77;;;3.50;99.90;;;;;;10133108;28;20052;-59
2023/03/04 03:47:40;;;;;;;25.75;9.43;;;3.30;99.90;;;;;;10133354;28;20519;-60
2023/03/04 03:52:31;;;;;;;26.67;10.07;;;3.30;99.90;;;;;;10139591;28;20436;-60
2023/03/04 03:57:21;;;;;;;27.73;10.40;;;3.20;99.90;;;;;;10138983;28;20021;-60
2023/03/04 04:02:12;;;;;;;26.27;10.35;;;3.20;99.90;;;;;;10119385;28;20033;-59
2023/03/04 04:07:03;;;;;;;24.65;10.10;;;3.20;99.90;;;;;;10143604;28;20033;-60
2023/03/04 04:11:54;;;;;;;31.67;11.63;;;3.10;99.90;;;;;;10144953;28;20028;-60
2023/03/04 04:16:44;;;;;;;27.95;11.57;;;2.90;99.90;;;;;;10144633;28;20025;-61
2023/03/04 04:21:35;;;;;;;32.42;11.30;;;2.90;99.90;;;;;;10150701;28;20040;-59
2023/03/04 04:26:25;;;;;;;29.13;11.60;;;2.90;99.90;;;;;;10152085;28;20028;-62
2023/03/04 04:31:16;;;;;;;30.20;10.02;;;2.90;99.90;;;;;;10152020;28;20517;-61
2023/03/04 04:36:12;;;;;;;27.30;9.40;;;2.90;99.90;;;;;;10151499;28;20286;-61
2023/03/04 04:41:03;;;;;;;29.70;12.43;;;3.00;99.90;;;;;;10151810;28;20036;-60
2023/03/04 04:45:53;;;;;;;25.23;10.68;;;2.90;99.90;;;;;;10151614;28;20052;-59
2023/03/04 04:50:44;;;;;;;31.70;10.48;;;2.80;99.90;;;;;;10151227;28;20037;-60
2023/03/04 04:55:35;;;;;;;26.70;8.77;;;2.70;99.90;;;;;;10151092;28;20538;-60
2023/03/04 05:00:25;;;;;;;28.35;10.60;;;2.80;99.90;;;;;;10151430;28;20119;-63
2023/03/04 05:05:16;;;;;;;31.70;11.38;;;2.70;99.90;;;;;;10136094;28;20013;-60
2023/03/04 05:10:07;;;;;;;32.83;10.80;;;2.60;99.90;;;;;;10152666;28;20032;-61
2023/03/04 05:14:58;;;;;;;30.35;11.07;;;2.60;99.90;;;;;;10149224;28;20044;-60
2023/03/04 05:19:49;;;;;;;29.13;12.18;;;2.60;99.90;;;;;;10144251;28;20043;-60
2023/03/04 05:24:39;;;;;;;23.48;10.85;;;2.60;99.90;;;;;;10145306;28;20506;-59
2023/03/04 05:29:30;;;;;;;28.52;10.07;;;2.60;99.90;;;;;;10144523;28;20179;-61
2023/03/04 05:34:20;;;;;;;26.85;10.05;;;2.50;99.90;;;;;;10144165;28;20043;-59
2023/03/04 05:39:11;;;;;;;27.98;10.55;;;2.60;99.90;;;;;;10144095;28;20068;-60
2023/03/04 05:44:02;;;;;;;26.70;10.63;;;2.50;99.90;;;;;;10144264;28;20136;-59
2023/03/04 05:48:53;;;;;;;24.77;10.85;;;2.50;99.90;;;;;;10143961;28;20082;-63
2023/03/04 05:53:44;;;;;;;26.20;11.20;;;2.40;99.90;;;;;;10144099;28;20012;-61
2023/03/04 05:58:35;;;;;;;37.03;12.38;;;2.40;99.90;;;;;;10143460;28;20115;-59
2023/03/04 06:03:26;;;;;;;25.00;10.50;;;2.40;99.90;;;;;;10141566;28;20435;-60
2023/03/04 06:08:16;;;;;;;31.77;11.40;;;2.30;99.90;;;;;;10107242;28;20371;-60
2023/03/04 06:13:08;;;;;;;26.17;10.65;;;2.30;99.90;;;;;;10138887;28;20028;-59
2023/03/04 06:17:58;;;;;;;26.17;10.30;;;2.20;99.90;;;;;;10140653;28;20068;-60
2023/03/04 06:22:49;;;;;;;38.25;13.75;;;2.30;99.90;;;;;;10111156;28;20394;-61
2023/03/04 06:27:40;;;;;;;28.20;10.95;;;2.20;99.90;;;;;;10142358;28;20020;-60
2023/03/04 06:32:30;;;;;;;35.97;11.93;;;2.30;99.90;;;;;;10142402;28;20020;-60
2023/03/04 06:37:22;;;;;;;28.17;10.13;;;2.40;99.90;;;;;;10142240;28;20060;-60
2023/03/04 06:42:13;;;;;;;27.38;9.98;;;2.40;99.90;;;;;;10141882;28;20083;-60
2023/03/04 06:47:03;;;;;;;29.63;12.13;;;2.40;99.90;;;;;;10141913;28;20075;-60
2023/03/04 06:51:54;;;;;;;33.50;11.13;;;2.30;99.90;;;;;;10142112;28;20151;-61
2023/03/04 06:56:44;;;;;;;26.98;11.07;;;2.40;99.90;;;;;;10122912;28;20082;-61
2023/03/04 07:01:36;;;;;;;28.67;11.82;;;2.40;99.90;;;;;;10141629;28;20020;-60
2023/03/04 07:06:28;;;;;;;35.78;13.23;;;2.40;99.90;;;;;;10123330;28;20037;-59
2023/03/04 07:11:20;;;;;;;30.25;10.95;;;2.30;99.90;;;;;;10138266;28;20178;-60
2023/03/04 07:16:17;;;;;;;29.27;10.57;;;2.50;99.90;;;;;;10141378;28;20027;-61
2023/03/04 07:21:11;;;;;;;30.40;11.45;;;2.40;99.90;;;;;;10140354;28;20033;-61
2023/03/04 07:26:03;;;;;;;34.63;12.55;;;2.30;99.90;;;;;;10139789;28;20021;-60
2023/03/04 07:30:53;;;;;;;26.08;9.77;;;2.50;99.90;;;;;;10132051;28;20106;-59
2023/03/04 07:35:44;;;;;;;35.10;11.45;;;2.60;99.90;;;;;;10145958;28;20543;-59
2023/03/04 07:40:35;;;;;;;29.95;11.82;;;2.60;99.90;;;;;;10135576;28;20047;-60
2023/03/04 07:45:26;;;;;;;22.35;10.70;;;2.60;99.90;;;;;;10136987;28;20072;-60
2023/03/04 07:50:17;;;;;;;37.63;10.93;;;2.70;99.90;;;;;;10139544;28;20020;-60
2023/03/04 07:55:09;;;;;;;29.15;10.93;;;2.70;99.90;;;;;;10139147;28;20035;-60
2023/03/04 08:00:00;;;;;;;32.92;11.70;;;2.60;99.90;;;;;;10138881;28;20033;-62
2023/03/04 08:04:51;;;;;;;31.38;13.07;;;2.70;99.90;;;;;;10139001;28;20509;-61
2023/03/04 08:09:42;;;;;;;32.55;11.63;;;2.80;99.90;;;;;;10138710;28;20040;-61
2023/03/04 08:14:33;;;;;;;36.17;14.48;;;2.90;99.90;;;;;;10139010;28;20025;-60
2023/03/04 08:19:23;;;;;;;36.53;12.77;;;3.00;99.90;;;;;;10121807;28;20123;-59
2023/03/04 08:24:14;;;;;;;36.17;12.43;;;3.00;99.90;;;;;;10151598;28;20036;-60
2023/03/04 08:29:05;;;;;;;29.80;12.25;;;3.30;99.90;;;;;;10138630;28;20506;-60
2023/03/04 08:33:56;;;;;;;31.00;12.93;;;3.40;99.90;;;;;;10139127;28;20027;-59
2023/03/04 08:38:47;;;;;;;25.45;10.70;;;3.50;99.90;;;;;;10136647;28;20040;-60
2023/03/04 08:43:37;;;;;;;26.40;11.60;;;3.50;99.90;;;;;;10138167;28;20036;-60
2023/03/04 08:48:28;;;;;;;27.73;11.05;;;3.70;99.90;;;;;;10139464;28;20115;-59
2023/03/04 08:53:19;;;;;;;29.70;12.13;;;3.70;99.90;;;;;;10126579;28;20078;-59
2023/03/04 08:58:11;;;;;;;34.13;12.60;;;3.90;99.90;;;;;;10145828;28;20020;-60
2023/03/04 09:03:02;;;;;;;37.90;12.85;;;4.00;99.90;;;;;;10134747;28;20029;-59
2023/03/04 09:07:53;;;;;;;40.03;14.73;;;4.00;99.90;;;;;;10146260;28;20058;-60
2023/03/04 09:12:45;;;;;;;33.03;12.32;;;4.10;99.90;;;;;;10127445;28;20490;-60
2023/03/04 09:17:36;;;;;;;38.80;11.80;;;4.20;99.90;;;;;;10145094;28;20020;-60
2023/03/04 09:22:26;;;;;;;30.50;11.90;;;4.30;99.90;;;;;;10146578;28;20423;-61
2023/03/04 09:27:17;;;;;;;30.38;11.60;;;4.40;99.90;;;;;;10145580;28;20031;-60
2023/03/04 09:32:07;;;;;;;28.70;11.35;;;4.50;99.90;;;;;;10144711;28;20020;-59
2023/03/04 09:36:58;;;;;;;30.25;14.38;;;4.60;99.90;;;;;;10144167;28;20035;-63
2023/03/04 09:41:55;;;;;;;31.90;13.90;;;4.70;99.90;;;;;;10144259;28;20085;-60
2023/03/04 09:46:47;;;;;;;31.27;14.05;;;4.80;99.90;;;;;;10143489;28;20075;-59
2023/03/04 09:51:50;;;;;;;27.70;14.25;;;5.00;99.90;;;;;;10143652;28;20037;-60
2023/03/04 09:56:41;;;;;;;35.28;16.70;;;5.10;99.90;;;;;;10143261;28;20087;-60
2023/03/04 10:01:59;;;;;;;30.23;15.45;;;5.50;99.90;;;;;;10124656;28;20045;-60
2023/03/04 10:06:53;;;;;;;32.33;14.50;;;5.80;99.90;;;;;;10136860;28;20028;-60
2023/03/04 10:11:47;;;;;;;33.13;14.68;;;6.10;99.90;;;;;;10156005;28;20029;-60
2023/03/04 10:16:47;;;;;;;33.15;15.93;;;6.20;99.90;;;;;;10142933;28;20017;-60
2023/03/04 10:21:44;;;;;;;37.72;15.80;;;5.60;99.90;;;;;;10134434;28;20445;-60
2023/03/04 10:26:35;;;;;;;43.15;17.10;;;5.50;99.90;;;;;;10141917;28;20028;-59
2023/03/04 10:31:36;;;;;;;37.70;17.05;;;5.60;99.90;;;;;;10142306;28;20031;-60
2023/03/04 10:36:29;;;;;;;33.83;14.93;;;5.90;99.90;;;;;;10141818;28;20033;-59
2023/03/04 10:41:23;;;;;;;40.97;15.82;;;6.00;99.90;;;;;;10142001;28;20094;-60
2023/03/04 10:46:15;;;;;;;29.67;13.98;;;6.30;99.90;;;;;;10123114;28;20071;-60
2023/03/04 10:51:20;;;;;;;35.85;17.75;;;6.40;99.90;;;;;;10141671;28;20385;-60
2023/03/04 10:56:29;;;;;;;28.38;13.73;;;6.70;99.90;;;;;;10145329;28;20495;-59
2023/03/04 11:01:24;;;;;;;37.13;16.85;;;6.90;99.90;;;;;;10122525;28;20295;-59
2023/03/04 11:06:19;;;;;;;39.58;16.63;;;6.90;99.90;;;;;;10140582;28;20479;-60
2023/03/04 11:11:43;;;;;;;40.17;17.80;;;6.90;99.90;;;;;;10140764;28;20060;-60
2023/03/04 11:16:33;;;;;;;36.25;17.67;;;6.60;99.90;;;;;;10140004;28;20028;-60
2023/03/04 11:21:29;;;;;;;30.48;14.48;;;6.70;99.90;;;;;;10140743;28;20047;-61
2023/03/04 11:26:28;;;;;;;39.15;16.90;;;6.90;99.90;;;;;;10140945;28;20111;-59
2023/03/04 11:31:37;;;;;;;32.35;15.73;;;6.90;99.90;;;;;;10140820;28;20032;-59
2023/03/04 11:36:49;;;;;;;41.22;19.00;;;7.10;99.90;;;;;;10140020;28;20032;-61
2023/03/04 11:41:46;;;;;;;37.58;17.75;;;6.90;99.90;;;;;;10139953;28;20040;-60
2023/03/04 11:46:46;;;;;;;36.65;15.80;;;7.30;99.90;;;;;;10139769;28;20044;-59
2023/03/04 11:51:40;;;;;;;37.63;15.18;;;7.30;99.90;;;;;;10138600;28;20032;-60
2023/03/04 11:56:51;;;;;;;34.25;16.40;;;7.30;99.90;;;;;;10139339;28;20017;-61
2023/03/04 12:01:50;;;;;;;38.67;16.05;;;7.30;99.90;;;;;;10139284;28;20040;-59
2023/03/04 12:06:47;;;;;;;35.83;17.05;;;7.30;99.90;;;;;;10138980;28;20021;-59
2023/03/04 12:12:07;;;;;;;33.17;14.90;;;7.60;99.90;;;;;;10120559;28;20589;-61
2023/03/04 12:17:25;;;;;;;29.75;14.27;;;7.70;99.90;;;;;;10139245;28;20027;-60
2023/03/04 12:22:34;;;;;;;27.63;14.23;;;7.60;99.90;;;;;;10139579;28;20039;-59
2023/03/04 12:27:33;;;;;;;36.35;14.35;;;7.80;99.90;;;;;;10145707;28;20505;-60
2023/03/04 12:32:33;;;;;;;35.38;16.48;;;7.30;99.90;;;;;;10147586;28;20025;-59
2023/03/04 12:37:46;;;;;;;36.63;16.52;;;7.30;99.90;;;;;;10147290;28;20436;-60
2023/03/04 12:43:17;;;;;;;28.45;14.73;;;7.80;99.80;;;;;;10147962;28;20051;-61
2023/03/04 12:48:35;;;;;;;32.22;14.75;;;8.40;99.50;;;;;;10147677;28;20044;-61
2023/03/04 12:53:32;;;;;;;34.60;16.60;;;8.70;99.30;;;;;;10146568;28;20101;-59
2023/03/04 12:58:29;;;;;;;30.40;14.85;;;8.80;99.40;;;;;;10145309;28;20023;-60
2023/03/04 13:03:42;;;;;;;35.45;17.13;;;9.00;99.00;;;;;;10127611;28;20056;-60
2023/03/04 13:08:32;;;;;;;29.05;16.08;;;8.90;98.70;;;;;;10146189;28;20024;-59
2023/03/04 13:13:38;;;;;;;36.10;16.45;;;8.40;98.90;;;;;;10145292;28;20120;-61
2023/03/04 13:18:38;;;;;;;32.97;16.67;;;9.20;98.60;;;;;;10144701;28;20025;-60
2023/03/04 13:23:30;;;;;;;39.40;18.42;;;9.40;98.50;;;;;;10143626;28;20146;-61
2023/03/04 13:28:28;;;;;;;34.40;16.88;;;9.60;98.60;;;;;;10137950;28;20020;-59
2023/03/04 13:33:22;;;;;;;36.55;17.55;;;10.00;98.70;;;;;;10137294;28;20021;-60
2023/03/04 13:38:29;;;;;;;37.15;19.08;;;10.20;98.50;;;;;;10138798;28;20475;-59
2023/03/04 13:43:38;;;;;;;32.55;17.95;;;10.80;98.70;;;;;;10141136;28;20068;-59
2023/03/04 13:48:35;;;;;;;35.00;18.60;;;10.60;97.80;;;;;;10143840;28;20024;-60
2023/03/04 13:53:41;;;;;;;34.58;17.35;;;10.70;97.90;;;;;;10143556;28;20029;-59
2023/03/04 13:58:32;;;;;;;31.88;17.92;;;11.10;98.10;;;;;;10125349;28;20028;-60
2023/03/04 14:03:27;;;;;;;39.60;19.38;;;11.80;98.00;;;;;;10143112;28;20071;-59
2023/03/04 14:08:24;;;;;;;31.75;16.70;;;11.00;97.00;;;;;;10143425;28;20059;-60
2023/03/04 14:13:15;;;;;;;31.48;17.90;;;10.50;96.80;;;;;;10124801;28;20434;-59
2023/03/04 14:18:06;;;;;;;37.78;19.73;;;11.30;96.70;;;;;;10143306;28;20035;-59
2023/03/04 14:22:58;;;;;;;35.33;19.00;;;12.00;95.90;;;;;;10142334;28;20359;-61
2023/03/04 14:28:00;;;;;;;29.83;16.27;;;12.40;95.40;;;;;;10124041;28;20024;-60
2023/03/04 14:32:53;;;;;;;32.50;16.48;;;12.60;95.20;;;;;;10142295;28;20017;-60
2023/03/04 14:38:00;;;;;;;33.28;17.42;;;12.40;94.50;;;;;;10142191;28;20467;-61
2023/03/04 14:42:57;;;;;;;32.83;16.70;;;11.80;94.10;;;;;;10141276;28;20032;-60
2023/03/04 14:47:51;;;;;;;32.83;17.65;;;14.30;93.50;;;;;;10141069;28;20055;-59
2023/03/04 14:52:45;;;;;;;33.97;17.65;;;14.70;92.20;;;;;;10142621;28;20455;-59
2023/03/04 14:57:35;;;;;;;31.38;15.68;;;12.60;92.20;;;;;;10141005;28;20029;-60
2023/03/04 15:02:30;;;;;;;30.35;15.98;;;14.10;91.70;;;;;;10140446;28;20100;-59
2023/03/04 15:07:32;;;;;;;32.00;16.92;;;14.90;90.60;;;;;;10141470;28;20043;-60
2023/03/04 15:12:29;;;;;;;34.85;16.60;;;14.60;90.10;;;;;;10140991;28;20028;-59
2023/03/04 15:17:41;;;;;;;31.55;15.73;;;12.30;90.90;;;;;;10140287;28;20330;-61
2023/03/04 15:22:33;;;;;;;31.52;14.93;;;10.40;91.20;;;;;;10123998;28;20060;-60
2023/03/04 15:27:26;;;;;;;29.30;14.75;;;9.20;91.80;;;;;;10138341;28;20040;-60
2023/03/04 15:32:17;;;;;;;31.23;14.40;;;8.90;91.70;;;;;;10120275;28;20029;-61
2023/03/04 15:37:14;;;;;;;30.15;14.20;;;8.70;91.50;;;;;;10138431;28;20036;-59
2023/03/04 15:42:10;;;;;;;34.33;12.73;;;8.80;91.50;;;;;;10139445;28;20123;-59
2023/03/04 15:47:01;;;;;;;33.00;15.07;;;9.70;91.30;;;;;;10139809;28;20045;-60
2023/03/04 15:51:52;;;;;;;29.60;15.25;;;10.70;90.50;;;;;;10139877;28;20025;-60
2023/03/04 15:56:43;;;;;;;33.13;13.98;;;9.80;91.10;;;;;;10139024;28;20020;-60
2023/03/04 16:01:33;;;;;;;31.50;14.90;;;10.00;91.20;;;;;;10139399;28;20044;-60
2023/03/04 16:06:27;;;;;;;31.67;14.23;;;9.00;91.60;;;;;;10139457;28;20074;-60
2023/03/04 16:11:25;;;;;;;26.80;12.55;;;8.60;91.90;;;;;;10140088;28;20028;-59
2023/03/04 16:16:16;;;;;;;28.88;12.77;;;8.30;92.40;;;;;;10139281;28;20493;-60
2023/03/04 16:21:12;;;;;;;32.53;14.57;;;8.20;92.10;;;;;;10138980;28;20036;-60
2023/03/04 16:26:03;;;;;;;27.67;12.77;;;8.20;92.20;;;;;;10139367;28;20036;-60
2023/03/04 16:30:54;;;;;;;31.25;13.00;;;8.30;92.10;;;;;;10137317;28;20020;-59
2023/03/04 16:35:45;;;;;;;31.13;13.63;;;8.30;92.10;;;;;;10135148;28;20494;-60
2023/03/04 16:40:35;;;;;;;35.83;11.95;;;7.90;92.50;;;;;;10120779;28;20032;-59
2023/03/04 16:45:29;;;;;;;31.17;12.73;;;7.60;92.80;;;;;;10138988;28;20113;-59
2023/03/04 16:50:26;;;;;;;33.15;13.05;;;7.60;92.80;;;;;;10139271;28;20150;-60
2023/03/04 16:55:24;;;;;;;30.73;12.32;;;7.50;93.00;;;;;;10138922;28;20025;-60
2023/03/04 17:00:17;;;;;;;29.85;11.20;;;7.60;93.00;;;;;;10138449;28;20047;-61
2023/03/04 17:05:15;;;;;;;29.00;12.02;;;7.50;93.00;;;;;;10138243;28;20056;-59
2023/03/04 17:10:06;;;;;;;27.30;11.48;;;7.40;93.20;;;;;;10120840;28;20090;-60
2023/03/04 17:14:57;;;;;;;29.20;10.52;;;7.40;93.30;;;;;;10145501;28;20027;-60
2023/03/04 17:19:48;;;;;;;26.98;10.05;;;7.20;93.50;;;;;;10145860;28;20046;-60
2023/03/04 17:24:39;;;;;;;27.80;11.55;;;7.00;93.70;;;;;;10145257;28;20387;-61
2023/03/04 17:29:30;;;;;;;30.90;11.00;;;7.00;93.90;;;;;;10144647;28;20024;-60
2023/03/04 17:34:20;;;;;;;24.15;11.73;;;7.00;94.00;;;;;;10145125;28;20028;-60
2023/03/04 17:39:11;;;;;;;23.50;10.73;;;7.00;94.10;;;;;;10144265;28;20036;-60
2023/03/04 17:44:02;;;;;;;32.55;9.95;;;7.00;94.10;;;;;;10144470;28;20052;-61
2023/03/04 17:48:55;;;;;;;27.58;10.43;;;6.90;94.30;;;;;;10144405;28;20110;-60
2023/03/04 17:53:46;;;;;;;26.35;10.68;;;6.90;94.40;;;;;;10143821;28;20093;-59
2023/03/04 17:58:37;;;;;;;23.00;8.38;;;7.00;94.40;;;;;;10143628;28;20548;-60
2023/03/04 18:03:27;;;;;;;22.42;9.90;;;6.80;94.60;;;;;;10125300;28;20041;-60
2023/03/04 18:08:18;;;;;;;24.10;10.00;;;6.90;94.60;;;;;;10143529;28;20008;-60
2023/03/04 18:13:09;;;;;;;26.05;9.07;;;6.80;94.80;;;;;;10143537;28;20270;-60
2023/03/04 18:17:59;;;;;;;21.23;8.50;;;6.80;94.90;;;;;;10143499;28;20345;-60
2023/03/04 18:22:50;;;;;;;26.73;11.13;;;6.80;94.80;;;;;;10143501;28;20039;-59
2023/03/04 18:27:41;;;;;;;18.60;7.97;;;6.80;94.90;;;;;;10142734;28;20028;-60
2023/03/04 18:32:32;;;;;;;26.17;10.25;;;6.70;95.00;;;;;;10142650;28;20037;-60
2023/03/04 18:37:23;;;;;;;22.25;9.77;;;6.80;95.00;;;;;;10142953;28;20070;-59
2023/03/04 18:42:13;;;;;;;23.70;9.05;;;6.80;95.30;;;;;;10142999;28;20072;-59
2023/03/04 18:47:05;;;;;;;21.17;9.63;;;7.00;94.90;;;;;;10142140;28;20048;-60
2023/03/04 18:51:56;;;;;;;21.50;9.05;;;7.00;94.90;;;;;;10142217;28;20042;-59
2023/03/04 18:56:51;;;;;;;20.52;7.70;;;6.80;95.00;;;;;;10141669;28;20554;-61
2023/03/04 19:01:42;;;;;;;21.17;8.30;;;6.80;95.20;;;;;;10123439;28;20044;-59
2023/03/04 19:06:33;;;;;;;19.70;8.75;;;6.90;95.20;;;;;;10141011;28;20089;-60
2023/03/04 19:11:24;;;;;;;21.52;7.68;;;6.90;95.20;;;;;;10141247;28;20555;-60
2023/03/04 19:16:15;;;;;;;17.85;8.60;;;6.90;95.10;;;;;;10140936;28;20025;-58
2023/03/04 19:21:05;;;;;;;26.80;9.00;;;6.70;95.30;;;;;;10140148;28;20438;-60
2023/03/04 19:25:56;;;;;;;21.67;7.13;;;6.80;95.20;;;;;;10120598;28;20075;-59
2023/03/04 19:30:47;;;;;;;23.75;8.40;;;6.90;95.30;;;;;;10115808;28;20032;-59
2023/03/04 19:35:42;;;;;;;22.63;8.65;;;6.90;95.30;;;;;;10128639;28;20067;-60
2023/03/04 19:40:33;;;;;;;27.20;10.10;;;6.90;95.30;;;;;;10133180;28;20126;-61
2023/03/04 19:45:24;;;;;;;18.95;7.82;;;6.70;95.40;;;;;;10116367;28;20044;-59
2023/03/04 19:50:16;;;;;;;23.98;7.82;;;6.60;95.50;;;;;;10139978;28;20474;-60
2023/03/04 19:55:08;;;;;;;18.48;8.23;;;6.70;95.60;;;;;;10121860;28;20023;-61
2023/03/04 19:59:59;;;;;;;24.95;8.45;;;6.90;95.50;;;;;;10139272;28;20124;-60
2023/03/04 20:04:50;;;;;;;19.20;8.07;;;6.80;95.50;;;;;;10139518;28;20111;-60
2023/03/04 20:09:40;;;;;;;14.02;6.20;;;6.80;95.50;;;;;;10140353;28;20056;-61
2023/03/04 20:14:33;;;;;;;13.35;5.75;;;6.80;95.60;;;;;;10140556;28;20115;-59
2023/03/04 20:19:23;;;;;;;13.15;6.75;;;6.80;95.70;;;;;;10138790;28;20230;-59
2023/03/04 20:24:14;;;;;;;17.48;7.03;;;6.70;95.80;;;;;;10152726;28;20395;-60
2023/03/04 20:29:05;;;;;;;14.40;6.80;;;6.80;95.80;;;;;;10140196;28;20028;-60
2023/03/04 20:33:56;;;;;;;18.55;6.53;;;6.90;95.70;;;;;;10139108;28;20033;-60
2023/03/04 20:38:48;;;;;;;14.70;5.40;;;6.90;95.80;;;;;;10139430;28;20131;-60
2023/03/04 20:43:39;;;;;;;18.90;7.22;;;6.80;95.90;;;;;;10139582;28;20055;-60
2023/03/04 20:48:29;;;;;;;17.95;6.13;;;6.80;95.80;;;;;;10147358;28;20027;-60
2023/03/04 20:53:20;;;;;;;17.95;6.63;;;6.90;95.80;;;;;;10148944;28;20025;-60
2023/03/04 20:58:11;;;;;;;14.88;6.75;;;6.90;95.80;;;;;;10128956;28;20478;-60
2023/03/04 21:03:01;;;;;;;15.98;7.30;;;6.80;95.80;;;;;;10139317;28;20411;-60
2023/03/04 21:07:54;;;;;;;22.63;7.60;;;6.70;95.90;;;;;;10135920;28;20515;-60
2023/03/04 21:12:44;;;;;;;16.15;7.65;;;6.60;95.80;;;;;;10123509;28;20049;-61
2023/03/04 21:17:35;;;;;;;19.23;8.70;;;6.60;95.90;;;;;;10144399;28;20047;-61
2023/03/04 21:22:26;;;;;;;18.65;7.45;;;6.60;95.90;;;;;;10145721;28;20036;-60
2023/03/04 21:27:16;;;;;;;17.90;7.32;;;6.70;95.90;;;;;;10145217;28;20043;-61
2023/03/04 21:32:18;;;;;;;17.33;6.15;;;6.70;95.90;;;;;;10146696;28;20024;-61
2023/03/04 21:37:09;;;;;;;17.88;7.88;;;6.50;96.00;;;;;;10145714;28;20058;-60
2023/03/04 21:42:00;;;;;;;16.90;7.32;;;6.50;96.00;;;;;;10127492;28;20093;-63
2023/03/04 21:46:50;;;;;;;17.08;7.50;;;6.50;96.00;;;;;;10144592;28;20126;-61
2023/03/04 21:51:42;;;;;;;20.25;7.70;;;6.50;96.10;;;;;;10145516;28;20543;-61
2023/03/04 21:56:33;;;;;;;19.95;7.70;;;6.50;96.10;;;;;;10143126;28;20009;-61
2023/03/04 22:01:24;;;;;;;25.00;7.57;;;6.50;96.10;;;;;;10143898;28;20063;-61
2023/03/04 22:06:15;;;;;;;18.40;7.18;;;6.60;96.20;;;;;;10143624;28;20031;-61
2023/03/04 22:11:09;;;;;;;19.60;7.57;;;6.50;96.30;;;;;;10124980;28;20036;-60
2023/03/04 22:16:00;;;;;;;16.05;6.97;;;6.50;96.30;;;;;;10143041;28;20027;-59
2023/03/04 22:21:02;;;;;;;17.08;7.70;;;6.40;96.30;;;;;;10141984;28;20043;-60
2023/03/04 22:25:54;;;;;;;17.67;8.13;;;6.50;96.30;;;;;;10142983;28;20021;-60
2023/03/04 22:30:45;;;;;;;20.88;7.63;;;6.50;96.40;;;;;;10124221;28;20024;-61
2023/03/04 22:35:39;;;;;;;20.33;8.02;;;6.60;96.40;;;;;;10124465;28;20424;-58
2023/03/04 22:40:31;;;;;;;18.00;7.35;;;6.60;96.30;;;;;;10123916;28;20032;-61
2023/03/04 22:45:25;;;;;;;17.63;7.07;;;6.50;96.40;;;;;;10141946;28;20195;-59
2023/03/04 22:50:17;;;;;;;19.33;7.78;;;6.50;96.50;;;;;;10142143;28;20078;-60
2023/03/04 22:55:08;;;;;;;17.05;7.35;;;6.40;96.60;;;;;;10141340;28;20092;-59
2023/03/04 22:59:59;;;;;;;11.68;5.35;;;6.50;96.60;;;;;;10141447;28;20029;-59
2023/03/04 23:04:50;;;;;;;14.30;6.75;;;6.40;96.60;;;;;;10141171;28;20084;-61
2023/03/04 23:09:40;;;;;;;17.52;6.32;;;6.40;96.80;;;;;;10139523;28;20115;-59
2023/03/04 23:14:31;;;;;;;19.08;7.43;;;6.40;96.80;;;;;;10142011;22;20831;-61
2023/03/04 23:19:22;;;;;;;21.17;8.50;;;6.40;96.70;;;;;;10096078;28;20037;-62
2023/03/04 23:24:13;;;;;;;24.17;9.27;;;6.40;96.80;;;;;;10100717;28;20021;-65
2023/03/04 23:29:05;;;;;;;18.15;8.40;;;6.40;96.90;;;;;;10108261;28;20033;-62
2023/03/04 23:33:56;;;;;;;23.98;10.13;;;6.40;96.90;;;;;;10100638;28;20029;-61
2023/03/04 23:38:47;;;;;;;20.27;9.02;;;6.50;96.90;;;;;;10100159;28;20097;-61
2023/03/04 23:43:38;;;;;;;21.33;9.48;;;6.30;97.10;;;;;;10113064;28;20454;-61
2023/03/04 23:48:29;;;;;;;27.98;10.35;;;6.20;97.10;;;;;;10100008;28;20087;-62
2023/03/04 23:53:20;;;;;;;29.05;10.10;;;6.10;97.20;;;;;;10100241;28;20036;-62
2023/03/04 23:58:10;;;;;;;23.80;9.57;;;6.10;97.20;;;;;;10104732;28;20037;-62
